Sponsor Message:
Civil Aviation Forum
My Starred Topics | Profile | New Topic | Forum Index | Help | Search 
LAN At SAN Today  
User currently offlineBicoastal From , joined Dec 1969, posts, RR:
Posted (7 years 8 months 4 days 22 hours ago) and read 3717 times:

Drove by Lindbergh and saw a LAN Chile 767 parked on the north side of the runway today. Anyone know why? A VIP, charter, etc? Did LAX have weather/fog issues last night? SAN was clear.

9 replies: All unread, jump to last
 
User currently offlineOPNLguy From , joined Dec 1969, posts, RR:
Reply 1, posted (7 years 8 months 4 days 22 hours ago) and read 3706 times:

Quoting Bicoastal (Thread starter):
Did LAX have weather/fog issues last night? SAN was clear.

Last night they were OK, but for about 4 hours between 1129z and 1529z it looks like the weather was down the tubes... What time was LAN due into LAX?

KLAX 241550Z COR 08006KT 1SM R25R/6000VP6000FT BR SCT000 BKN002 13/12 A3000 RMK AO2 SLP159 BR SCT000 T01330122 $
KLAX 241545Z COR VRB03KT 1SM R25R/3500VP6000FT BR SCT000 BKN002 13/12 A3000 RMK AO2 BR SCT000 $
KLAX 241529Z 08004KT 3/4SM R25R/4000V6000FT BR BKN001 13/12 A3000 RMK AO2 VIS M1/4 RWY24 $
KLAX 241450Z COR 00000KT 0SM R25R/1200V4500FT FG VV001 12/12 A2999 RMK AO2 SLP155 ASOS VIS 1/4 T01220122 53008 $
KLAX 241350Z COR 10003KT 0SM R25R/0700V0800FT FG VV001 12/12 A2998 RMK AO2 SLP150 T01220122 $
KLAX 241250Z 00000KT 0SM R25R/0800V1000FT FG VV001 12/12 A2997 RMK AO2 SLP147 T01220122 $
KLAX 241150Z 09004KT 0SM R25R/0800V1000FT FG VV001 12/12 A2997 RMK AO2 SLP146 T01220122 10150 20117 56009 $
KLAX 241129Z 12004KT 1/16SM R25R/0600V0800FT FG VV001 12/12 A2997 RMK AO2 VIS 1/16V3/4 $
KLAX 241119Z COR 12005KT 1SM R25R/0700V1200FT BR SCT000 BKN002 12/12 A2997 RMK AO2 VIS 3/4V3 FG SCT000 $
KLAX 241109Z COR 13003KT 2 1/2SM R25R/1600VP6000FT BR FEW000 SCT002 12/10 A2997 RMK AO2 FG FEW000 FG BANK SE-SW $
KLAX 241050Z 12005KT 6SM HZ FEW180 12/08 A2997 RMK AO2 SLP147 T01220083


User currently offlineHawaiian717 From United States of America, joined May 1999, 3188 posts, RR: 7
Reply 2, posted (7 years 8 months 4 days 22 hours ago) and read 3689 times:

Yes it was a diversion, originally bound for LAX.

http://flightaware.com/live/flight/L...0/history/20061124/0640Z/SPIM/KSAN


User currently offlineCoronado990 From United States of America, joined Oct 2003, 1597 posts, RR: 2
Reply 3, posted (7 years 8 months 4 days 22 hours ago) and read 3688 times:

FlightAware shows LAN600 arrived SAN at 7:38am this morning from LIM. Wish I would have known. I would have there in a flash. Is LAN600 the one normally into LAX?


Uncle SAN at your service!
User currently offlineTrvlr From United States of America, joined Feb 2000, 4430 posts, RR: 21
Reply 4, posted (7 years 8 months 4 days 22 hours ago) and read 3666 times:

There were actually two LAN 763s at SAN today. Both were parked at remote stands around 9:00am, when I drove by.

Aaron G.


User currently offlineAirplaneFan From United States of America, joined Nov 2006, 236 posts, RR: 0
Reply 5, posted (7 years 8 months 4 days 22 hours ago) and read 3657 times:

Quoting Bicoastal (Thread starter):
LAN At SAN Today

Yes, two LAN Boeing 767 flights were diverted to San Diego due to low fog at Los Angeles today.

Here are some pics of the two diverted airplanes:

CC-CZW
CC-CIO

Regards,

AirplaneFan.



I AM ABLE THINK, THEREFORE I EXIST.
User currently offlineLindy Field From United States of America, joined Mar 2001, 3116 posts, RR: 14
Reply 6, posted (7 years 8 months 4 days 14 hours ago) and read 3438 times:
Support Airliners.net - become a First Class Member!

AirplaneFan,

I had a look through your photo album. You've got some great photos from SAN, aircraft that are very seldomly seen in the area. I hope you'll consider uploading some of them to airliners.net or myaviation.net. In any case, thanks very much for posting the link.

Regards,

Edward


User currently offlineMCOflyer From United States of America, joined Jun 2006, 8661 posts, RR: 15
Reply 7, posted (7 years 8 months 3 days 19 hours ago) and read 2985 times:

Quoting Lindy Field (Reply 6):
I hope you'll consider uploading some of them to airliners.net or myaviation.net.

I agree.

MCOflyer



Never be afraid to stand up for who you are.
User currently offlineSan747 From United States of America, joined Dec 2004, 4941 posts, RR: 12
Reply 8, posted (7 years 8 months 3 days 16 hours ago) and read 2930 times:

Great shots! It's not often we see LAN at SAN, not since November has one been there... For the same reason too!

And I concur with the others... Please upload!



Scotty doesn't know...
User currently offlineLindy Field From United States of America, joined Mar 2001, 3116 posts, RR: 14
Reply 9, posted (7 years 7 months 3 weeks 5 days 4 hours ago) and read 2684 times:
Support Airliners.net - become a First Class Member!

Looks like Airplane Fan came through and uploaded to myav. LAN looks great in SAN, wish they had a regularly scheduled flight.  Smile


MyAviation.net photo:
Click here for bigger photo!
Photo © Denis Desmond



Top Of Page
Forum Index

This topic is archived and can not be replied to any more.

Printer friendly format

Similar topics:More similar topics...
Miami Air At SAN Today (6/16) posted Thu Jun 15 2006 18:05:00 by San747
AA 763 At SAN Today 7/24 posted Sun Jul 24 2005 23:45:19 by SANSCOTT744
Il-86 At SAN Today posted Thu Dec 5 2002 04:33:00 by QANTAS747-438
LAN Airlines At SAN Last Month? posted Tue Dec 20 2005 03:35:57 by San747
BA Delays At LGW Today posted Fri Dec 15 2006 16:09:52 by BFS
Zoom Flight At YHM Today posted Sat Dec 9 2006 23:52:10 by Fly_yhm
6 QF 744 Aircraft At LAX Today posted Sat Dec 9 2006 05:12:49 by PA110
UN Dash-8 At BHX Today... posted Mon Dec 4 2006 21:00:39 by JakTrax
United: Why 777 At ANC Today? posted Tue Nov 28 2006 23:10:45 by AA737-823
What's Been Going On At MAN Today? posted Sun Nov 26 2006 19:53:46 by AirbusA346